sensor_id;sensor_type;location;lat;lon;timestamp;temperature;humidity
66144;SHT31;52947;50.842;6.084;2022-10-13T00:02:22;11.97;81.65
66144;SHT31;52947;50.842;6.084;2022-10-13T00:04:49;11.93;81.70
66144;SHT31;52947;50.842;6.084;2022-10-13T00:07:17;11.99;81.48
66144;SHT31;52947;50.842;6.084;2022-10-13T00:09:45;11.97;81.52
66144;SHT31;52947;50.842;6.084;2022-10-13T00:12:13;12.00;81.56
66144;SHT31;52947;50.842;6.084;2022-10-13T00:14:41;11.99;81.48
66144;SHT31;52947;50.842;6.084;2022-10-13T00:17:09;12.00;81.47
66144;SHT31;52947;50.842;6.084;2022-10-13T00:19:38;12.00;81.55
66144;SHT31;52947;50.842;6.084;2022-10-13T00:22:06;12.00;81.44
66144;SHT31;52947;50.842;6.084;2022-10-13T00:24:34;11.97;81.60
66144;SHT31;52947;50.842;6.084;2022-10-13T00:27:03;12.00;81.66
66144;SHT31;52947;50.842;6.084;2022-10-13T00:29:33;11.96;81.66
66144;SHT31;52947;50.842;6.084;2022-10-13T00:32:01;11.99;81.68
66144;SHT31;52947;50.842;6.084;2022-10-13T00:34:28;11.97;81.49
66144;SHT31;52947;50.842;6.084;2022-10-13T00:36:58;11.93;81.73
66144;SHT31;52947;50.842;6.084;2022-10-13T00:39:25;11.97;81.59
66144;SHT31;52947;50.842;6.084;2022-10-13T00:41:53;11.99;81.63
66144;SHT31;52947;50.842;6.084;2022-10-13T00:47:28;12.02;81.49
66144;SHT31;52947;50.842;6.084;2022-10-13T00:49:58;12.02;81.66
66144;SHT31;52947;50.842;6.084;2022-10-13T00:52:28;12.00;81.76
66144;SHT31;52947;50.842;6.084;2022-10-13T00:54:58;11.97;81.52
66144;SHT31;52947;50.842;6.084;2022-10-13T00:57:26;11.96;81.76
66144;SHT31;52947;50.842;6.084;2022-10-13T00:59:54;11.94;81.95
66144;SHT31;52947;50.842;6.084;2022-10-13T01:02:23;11.93;81.90
66144;SHT31;52947;50.842;6.084;2022-10-13T01:04:54;12.00;81.91
66144;SHT31;52947;50.842;6.084;2022-10-13T01:07:23;12.04;81.78
66144;SHT31;52947;50.842;6.084;2022-10-13T01:09:53;12.06;81.74
66144;SHT31;52947;50.842;6.084;2022-10-13T01:12:29;12.09;81.58
66144;SHT31;52947;50.842;6.084;2022-10-13T01:15:07;12.13;81.51
66144;SHT31;52947;50.842;6.084;2022-10-13T01:17:47;12.19;81.34
66144;SHT31;52947;50.842;6.084;2022-10-13T01:20:48;12.19;81.29
66144;SHT31;52947;50.842;6.084;2022-10-13T01:23:26;12.20;81.16
66144;SHT31;52947;50.842;6.084;2022-10-13T01:26:16;12.24;80.91
66144;SHT31;52947;50.842;6.084;2022-10-13T01:29:02;12.27;80.96
66144;SHT31;52947;50.842;6.084;2022-10-13T01:31:41;12.37;81.08
66144;SHT31;52947;50.842;6.084;2022-10-13T01:34:17;12.38;80.91
66144;SHT31;52947;50.842;6.084;2022-10-13T01:36:53;12.50;80.72
66144;SHT31;52947;50.842;6.084;2022-10-13T01:39:32;12.50;80.04
66144;SHT31;52947;50.842;6.084;2022-10-13T01:42:06;12.48;79.96
66144;SHT31;52947;50.842;6.084;2022-10-13T01:44:40;12.48;79.89
66144;SHT31;52947;50.842;6.084;2022-10-13T01:47:13;12.61;80.27
66144;SHT31;52947;50.842;6.084;2022-10-13T01:49:43;12.57;79.60
66144;SHT31;52947;50.842;6.084;2022-10-13T01:52:14;12.63;79.41
66144;SHT31;52947;50.842;6.084;2022-10-13T01:54:47;12.64;79.76
66144;SHT31;52947;50.842;6.084;2022-10-13T01:57:30;12.60;79.94
66144;SHT31;52947;50.842;6.084;2022-10-13T02:00:01;12.65;80.10
66144;SHT31;52947;50.842;6.084;2022-10-13T02:02:45;12.61;79.30
66144;SHT31;52947;50.842;6.084;2022-10-13T02:05:22;12.65;79.37
66144;SHT31;52947;50.842;6.084;2022-10-13T02:07:55;12.68;79.16
66144;SHT31;52947;50.842;6.084;2022-10-13T02:10:33;12.65;78.60
66144;SHT31;52947;50.842;6.084;2022-10-13T02:13:05;12.57;79.25
66144;SHT31;52947;50.842;6.084;2022-10-13T02:15:36;12.60;79.71
66144;SHT31;52947;50.842;6.084;2022-10-13T02:18:10;12.67;78.66
66144;SHT31;52947;50.842;6.084;2022-10-13T02:20:39;12.58;78.81
66144;SHT31;52947;50.842;6.084;2022-10-13T02:23:10;12.63;78.68
66144;SHT31;52947;50.842;6.084;2022-10-13T02:25:39;12.72;79.01
66144;SHT31;52947;50.842;6.084;2022-10-13T02:28:08;12.72;78.44
66144;SHT31;52947;50.842;6.084;2022-10-13T02:30:41;12.64;78.53
66144;SHT31;52947;50.842;6.084;2022-10-13T02:33:11;12.71;77.75
66144;SHT31;52947;50.842;6.084;2022-10-13T02:35:39;12.72;77.73
66144;SHT31;52947;50.842;6.084;2022-10-13T02:38:07;12.74;77.90
66144;SHT31;52947;50.842;6.084;2022-10-13T02:40:36;12.74;77.73
66144;SHT31;52947;50.842;6.084;2022-10-13T02:43:04;12.69;77.81
66144;SHT31;52947;50.842;6.084;2022-10-13T02:45:31;12.77;77.95
66144;SHT31;52947;50.842;6.084;2022-10-13T02:47:59;12.78;77.48
66144;SHT31;52947;50.842;6.084;2022-10-13T02:50:28;12.80;77.99
66144;SHT31;52947;50.842;6.084;2022-10-13T02:52:57;12.82;77.34
66144;SHT31;52947;50.842;6.084;2022-10-13T02:55:25;12.80;77.27
66144;SHT31;52947;50.842;6.084;2022-10-13T02:57:55;12.84;77.32
66144;SHT31;52947;50.842;6.084;2022-10-13T03:00:23;12.84;77.08
66144;SHT31;52947;50.842;6.084;2022-10-13T03:02:52;12.85;77.45
66144;SHT31;52947;50.842;6.084;2022-10-13T03:05:20;12.92;77.54
66144;SHT31;52947;50.842;6.084;2022-10-13T03:07:49;12.84;77.36
66144;SHT31;52947;50.842;6.084;2022-10-13T03:10:17;12.80;77.11
66144;SHT31;52947;50.842;6.084;2022-10-13T03:12:46;12.81;77.02
66144;SHT31;52947;50.842;6.084;2022-10-13T03:15:14;12.81;77.04
66144;SHT31;52947;50.842;6.084;2022-10-13T03:17:41;12.88;77.23
66144;SHT31;52947;50.842;6.084;2022-10-13T03:20:09;12.96;76.93
66144;SHT31;52947;50.842;6.084;2022-10-13T03:22:37;12.94;77.24
66144;SHT31;52947;50.842;6.084;2022-10-13T03:25:06;12.91;76.88
66144;SHT31;52947;50.842;6.084;2022-10-13T03:27:34;12.88;77.03
66144;SHT31;52947;50.842;6.084;2022-10-13T03:30:03;12.96;76.73
66144;SHT31;52947;50.842;6.084;2022-10-13T03:32:31;12.92;77.36
66144;SHT31;52947;50.842;6.084;2022-10-13T03:34:59;12.89;78.28
66144;SHT31;52947;50.842;6.084;2022-10-13T03:37:27;12.88;77.03
66144;SHT31;52947;50.842;6.084;2022-10-13T03:39:55;12.89;77.58
66144;SHT31;52947;50.842;6.084;2022-10-13T03:42:24;12.81;78.11
66144;SHT31;52947;50.842;6.084;2022-10-13T03:44:52;12.78;77.84
66144;SHT31;52947;50.842;6.084;2022-10-13T03:47:22;12.88;77.45
66144;SHT31;52947;50.842;6.084;2022-10-13T03:49:50;12.91;77.42
66144;SHT31;52947;50.842;6.084;2022-10-13T03:52:19;12.94;78.10
66144;SHT31;52947;50.842;6.084;2022-10-13T03:54:48;12.87;77.68
66144;SHT31;52947;50.842;6.084;2022-10-13T03:57:16;12.78;78.35
66144;SHT31;52947;50.842;6.084;2022-10-13T03:59:45;12.84;77.85
66144;SHT31;52947;50.842;6.084;2022-10-13T04:02:13;12.88;77.88
66144;SHT31;52947;50.842;6.084;2022-10-13T04:04:40;12.81;78.11
66144;SHT31;52947;50.842;6.084;2022-10-13T04:07:08;12.85;77.91
66144;SHT31;52947;50.842;6.084;2022-10-13T04:09:36;12.89;77.82
66144;SHT31;52947;50.842;6.084;2022-10-13T04:12:04;12.80;78.12
66144;SHT31;52947;50.842;6.084;2022-10-13T04:14:32;12.85;78.16
66144;SHT31;52947;50.842;6.084;2022-10-13T04:17:08;12.88;78.02
66144;SHT31;52947;50.842;6.084;2022-10-13T04:19:35;12.82;78.23
66144;SHT31;52947;50.842;6.084;2022-10-13T04:22:04;12.78;78.68
66144;SHT31;52947;50.842;6.084;2022-10-13T04:24:32;12.82;78.32
66144;SHT31;52947;50.842;6.084;2022-10-13T04:26:59;12.82;78.77
66144;SHT31;52947;50.842;6.084;2022-10-13T04:29:27;12.82;78.67
66144;SHT31;52947;50.842;6.084;2022-10-13T04:31:57;12.81;79.06
66144;SHT31;52947;50.842;6.084;2022-10-13T04:34:27;12.81;78.66
66144;SHT31;52947;50.842;6.084;2022-10-13T04:36:54;12.84;79.61
66144;SHT31;52947;50.842;6.084;2022-10-13T04:39:22;12.89;78.75
66144;SHT31;52947;50.842;6.084;2022-10-13T04:41:50;12.84;78.38
66144;SHT31;52947;50.842;6.084;2022-10-13T04:44:18;12.84;78.62
66144;SHT31;52947;50.842;6.084;2022-10-13T04:46:46;12.69;79.17
66144;SHT31;52947;50.842;6.084;2022-10-13T04:49:14;12.78;78.87
66144;SHT31;52947;50.842;6.084;2022-10-13T04:51:43;12.78;78.73
66144;SHT31;52947;50.842;6.084;2022-10-13T04:54:11;12.80;78.66
66144;SHT31;52947;50.842;6.084;2022-10-13T04:56:39;12.77;79.12
66144;SHT31;52947;50.842;6.084;2022-10-13T04:59:07;12.80;78.98
66144;SHT31;52947;50.842;6.084;2022-10-13T05:01:35;12.75;78.79
66144;SHT31;52947;50.842;6.084;2022-10-13T05:04:06;12.74;79.08
66144;SHT31;52947;50.842;6.084;2022-10-13T05:06:37;12.74;79.02
66144;SHT31;52947;50.842;6.084;2022-10-13T05:09:27;12.68;79.13
66144;SHT31;52947;50.842;6.084;2022-10-13T05:11:54;12.64;79.80
66144;SHT31;52947;50.842;6.084;2022-10-13T05:14:22;12.67;79.46
66144;SHT31;52947;50.842;6.084;2022-10-13T05:16:50;12.69;78.99
66144;SHT31;52947;50.842;6.084;2022-10-13T05:19:18;12.81;79.15
66144;SHT31;52947;50.842;6.084;2022-10-13T05:21:47;12.80;79.08
66144;SHT31;52947;50.842;6.084;2022-10-13T05:24:15;12.72;79.30
66144;SHT31;52947;50.842;6.084;2022-10-13T05:26:48;12.71;79.54
66144;SHT31;52947;50.842;6.084;2022-10-13T05:29:16;12.69;79.28
66144;SHT31;52947;50.842;6.084;2022-10-13T05:31:44;12.72;79.48
66144;SHT31;52947;50.842;6.084;2022-10-13T05:34:12;12.80;79.09
66144;SHT31;52947;50.842;6.084;2022-10-13T05:36:40;12.75;79.20
66144;SHT31;52947;50.842;6.084;2022-10-13T05:39:09;12.80;79.22
66144;SHT31;52947;50.842;6.084;2022-10-13T05:41:36;12.82;79.20
66144;SHT31;52947;50.842;6.084;2022-10-13T05:44:13;12.88;78.97
66144;SHT31;52947;50.842;6.084;2022-10-13T05:46:52;12.91;78.79
66144;SHT31;52947;50.842;6.084;2022-10-13T05:49:19;12.87;78.67
66144;SHT31;52947;50.842;6.084;2022-10-13T05:51:49;12.87;78.51
66144;SHT31;52947;50.842;6.084;2022-10-13T05:54:26;12.84;78.87
66144;SHT31;52947;50.842;6.084;2022-10-13T05:56:59;12.87;78.66
66144;SHT31;52947;50.842;6.084;2022-10-13T05:59:31;12.77;79.45
66144;SHT31;52947;50.842;6.084;2022-10-13T06:02:01;12.71;79.21
66144;SHT31;52947;50.842;6.084;2022-10-13T06:04:34;12.64;79.52
66144;SHT31;52947;50.842;6.084;2022-10-13T06:07:02;12.61;79.50
66144;SHT31;52947;50.842;6.084;2022-10-13T06:09:32;12.68;79.09
66144;SHT31;52947;50.842;6.084;2022-10-13T06:12:00;12.77;78.92
66144;SHT31;52947;50.842;6.084;2022-10-13T06:14:29;12.82;78.67
66144;SHT31;52947;50.842;6.084;2022-10-13T06:16:57;12.84;78.55
66144;SHT31;52947;50.842;6.084;2022-10-13T06:19:25;12.89;78.38
66144;SHT31;52947;50.842;6.084;2022-10-13T06:21:53;12.91;78.40
66144;SHT31;52947;50.842;6.084;2022-10-13T06:24:22;12.78;78.77
66144;SHT31;52947;50.842;6.084;2022-10-13T06:26:50;12.84;78.75
66144;SHT31;52947;50.842;6.084;2022-10-13T06:29:18;12.99;78.25
66144;SHT31;52947;50.842;6.084;2022-10-13T06:31:47;13.11;77.66
66144;SHT31;52947;50.842;6.084;2022-10-13T06:34:15;13.08;77.65
66144;SHT31;52947;50.842;6.084;2022-10-13T06:36:43;13.13;77.32
66144;SHT31;52947;50.842;6.084;2022-10-13T06:39:11;13.22;77.59
66144;SHT31;52947;50.842;6.084;2022-10-13T06:41:39;13.27;77.26
66144;SHT31;52947;50.842;6.084;2022-10-13T06:44:07;13.30;76.89
66144;SHT31;52947;50.842;6.084;2022-10-13T06:46:36;13.38;76.63
66144;SHT31;52947;50.842;6.084;2022-10-13T06:49:05;13.38;76.42
66144;SHT31;52947;50.842;6.084;2022-10-13T06:51:35;13.40;76.44
66144;SHT31;52947;50.842;6.084;2022-10-13T06:54:03;13.43;76.38
66144;SHT31;52947;50.842;6.084;2022-10-13T06:56:32;13.49;76.59
66144;SHT31;52947;50.842;6.084;2022-10-13T06:59:06;13.63;76.03
66144;SHT31;52947;50.842;6.084;2022-10-13T07:01:36;13.81;75.05
66144;SHT31;52947;50.842;6.084;2022-10-13T07:04:12;13.71;75.22
66144;SHT31;52947;50.842;6.084;2022-10-13T07:06:40;13.73;75.43
66144;SHT31;52947;50.842;6.084;2022-10-13T07:09:08;13.70;75.73
66144;SHT31;52947;50.842;6.084;2022-10-13T07:11:36;13.69;75.68
66144;SHT31;52947;50.842;6.084;2022-10-13T07:14:04;13.66;75.35
66144;SHT31;52947;50.842;6.084;2022-10-13T07:16:32;13.69;75.23
66144;SHT31;52947;50.842;6.084;2022-10-13T07:19:00;13.64;75.62
66144;SHT31;52947;50.842;6.084;2022-10-13T07:21:30;13.70;75.18
66144;SHT31;52947;50.842;6.084;2022-10-13T07:23:59;13.69;75.55
66144;SHT31;52947;50.842;6.084;2022-10-13T07:26:27;13.74;75.54
66144;SHT31;52947;50.842;6.084;2022-10-13T07:28:55;13.78;75.46
66144;SHT31;52947;50.842;6.084;2022-10-13T07:31:23;13.88;75.01
66144;SHT31;52947;50.842;6.084;2022-10-13T07:33:52;13.98;74.66
66144;SHT31;52947;50.842;6.084;2022-10-13T07:36:26;14.07;74.21
66144;SHT31;52947;50.842;6.084;2022-10-13T07:38:55;14.13;74.05
66144;SHT31;52947;50.842;6.084;2022-10-13T07:41:23;14.25;73.88
66144;SHT31;52947;50.842;6.084;2022-10-13T07:43:54;14.38;73.36
66144;SHT31;52947;50.842;6.084;2022-10-13T07:46:22;14.52;72.69
66144;SHT31;52947;50.842;6.084;2022-10-13T07:48:51;14.65;72.46
66144;SHT31;52947;50.842;6.084;2022-10-13T07:51:19;14.75;72.21
66144;SHT31;52947;50.842;6.084;2022-10-13T07:53:48;14.90;72.05
66144;SHT31;52947;50.842;6.084;2022-10-13T07:56:17;14.90;71.73
66144;SHT31;52947;50.842;6.084;2022-10-13T07:58:46;14.96;71.42
66144;SHT31;52947;50.842;6.084;2022-10-13T08:01:14;15.02;71.51
66144;SHT31;52947;50.842;6.084;2022-10-13T08:03:43;14.99;71.13
66144;SHT31;52947;50.842;6.084;2022-10-13T08:06:17;14.93;71.55
66144;SHT31;52947;50.842;6.084;2022-10-13T08:08:45;14.86;71.77
66144;SHT31;52947;50.842;6.084;2022-10-13T08:11:17;14.87;71.87
66144;SHT31;52947;50.842;6.084;2022-10-13T08:13:48;15.00;71.81
66144;SHT31;52947;50.842;6.084;2022-10-13T08:16:19;15.11;71.55
66144;SHT31;52947;50.842;6.084;2022-10-13T08:18:47;15.19;70.98
66144;SHT31;52947;50.842;6.084;2022-10-13T08:21:17;15.27;70.67
66144;SHT31;52947;50.842;6.084;2022-10-13T08:24:06;15.33;70.85
66144;SHT31;52947;50.842;6.084;2022-10-13T08:26:37;15.46;70.68
66144;SHT31;52947;50.842;6.084;2022-10-13T08:29:05;15.57;70.27
66144;SHT31;52947;50.842;6.084;2022-10-13T08:31:50;15.67;70.54
66144;SHT31;52947;50.842;6.084;2022-10-13T08:34:19;15.78;69.68
66144;SHT31;52947;50.842;6.084;2022-10-13T08:36:47;16.10;69.11
66144;SHT31;52947;50.842;6.084;2022-10-13T08:39:18;16.38;68.73
66144;SHT31;52947;50.842;6.084;2022-10-13T08:41:48;16.42;68.68
66144;SHT31;52947;50.842;6.084;2022-10-13T08:44:21;16.61;68.00
66144;SHT31;52947;50.842;6.084;2022-10-13T08:47:14;16.53;68.20
66144;SHT31;52947;50.842;6.084;2022-10-13T08:49:44;16.45;68.09
66144;SHT31;52947;50.842;6.084;2022-10-13T08:52:17;16.28;68.53
66144;SHT31;52947;50.842;6.084;2022-10-13T08:54:47;16.20;68.97
66144;SHT31;52947;50.842;6.084;2022-10-13T08:57:17;16.05;69.53
66144;SHT31;52947;50.842;6.084;2022-10-13T08:59:45;15.97;69.71
66144;SHT31;52947;50.842;6.084;2022-10-13T09:02:21;15.84;70.41
66144;SHT31;52947;50.842;6.084;2022-10-13T09:04:51;15.65;71.27
66144;SHT31;52947;50.842;6.084;2022-10-13T09:07:21;15.47;72.13
66144;SHT31;52947;50.842;6.084;2022-10-13T09:09:52;15.31;72.60
66144;SHT31;52947;50.842;6.084;2022-10-13T09:12:25;15.22;73.28
66144;SHT31;52947;50.842;6.084;2022-10-13T09:14:57;15.08;73.95
66144;SHT31;52947;50.842;6.084;2022-10-13T09:17:28;14.97;74.41
66144;SHT31;52947;50.842;6.084;2022-10-13T09:19:58;14.95;74.92
66144;SHT31;52947;50.842;6.084;2022-10-13T09:22:28;14.96;74.87
66144;SHT31;52947;50.842;6.084;2022-10-13T09:25:23;14.89;75.06
66144;SHT31;52947;50.842;6.084;2022-10-13T09:27:54;14.96;74.91
66144;SHT31;52947;50.842;6.084;2022-10-13T09:30:30;14.93;74.65
66144;SHT31;52947;50.842;6.084;2022-10-13T09:33:19;14.92;74.32
66144;SHT31;52947;50.842;6.084;2022-10-13T09:35:49;14.87;74.53
66144;SHT31;52947;50.842;6.084;2022-10-13T09:38:32;14.93;74.82
66144;SHT31;52947;50.842;6.084;2022-10-13T09:41:02;15.04;74.48
66144;SHT31;52947;50.842;6.084;2022-10-13T09:43:34;15.06;74.70
66144;SHT31;52947;50.842;6.084;2022-10-13T09:46:11;14.99;74.39
66144;SHT31;52947;50.842;6.084;2022-10-13T09:48:40;15.00;74.60
66144;SHT31;52947;50.842;6.084;2022-10-13T09:51:28;15.00;74.91
66144;SHT31;52947;50.842;6.084;2022-10-13T09:53:56;15.06;74.91
66144;SHT31;52947;50.842;6.084;2022-10-13T09:56:27;15.06;75.13
66144;SHT31;52947;50.842;6.084;2022-10-13T09:59:06;15.10;75.17
66144;SHT31;52947;50.842;6.084;2022-10-13T10:01:38;15.03;75.59
66144;SHT31;52947;50.842;6.084;2022-10-13T10:04:12;15.03;75.68
66144;SHT31;52947;50.842;6.084;2022-10-13T10:06:42;15.10;75.13
66144;SHT31;52947;50.842;6.084;2022-10-13T10:09:26;15.11;75.40
66144;SHT31;52947;50.842;6.084;2022-10-13T10:11:59;15.08;75.25
66144;SHT31;52947;50.842;6.084;2022-10-13T10:14:31;15.08;75.57
66144;SHT31;52947;50.842;6.084;2022-10-13T10:17:05;15.08;75.98
66144;SHT31;52947;50.842;6.084;2022-10-13T10:19:45;15.16;75.94
66144;SHT31;52947;50.842;6.084;2022-10-13T10:22:21;15.10;75.98
66144;SHT31;52947;50.842;6.084;2022-10-13T10:24:55;15.22;76.07
66144;SHT31;52947;50.842;6.084;2022-10-13T10:27:29;15.28;75.79
66144;SHT31;52947;50.842;6.084;2022-10-13T10:30:02;15.31;75.41
66144;SHT31;52947;50.842;6.084;2022-10-13T10:32:38;15.37;75.24
66144;SHT31;52947;50.842;6.084;2022-10-13T10:35:11;15.43;75.21
66144;SHT31;52947;50.842;6.084;2022-10-13T10:37:56;15.57;74.82
66144;SHT31;52947;50.842;6.084;2022-10-13T10:40:36;15.59;74.66
66144;SHT31;52947;50.842;6.084;2022-10-13T10:43:40;15.58;74.96
66144;SHT31;52947;50.842;6.084;2022-10-13T10:46:15;15.64;74.58
66144;SHT31;52947;50.842;6.084;2022-10-13T10:48:44;15.67;74.58
66144;SHT31;52947;50.842;6.084;2022-10-13T10:51:13;15.61;74.75
66144;SHT31;52947;50.842;6.084;2022-10-13T10:53:51;15.51;76.13
66144;SHT31;52947;50.842;6.084;2022-10-13T10:56:29;15.41;77.08
66144;SHT31;52947;50.842;6.084;2022-10-13T10:59:10;15.41;76.80
66144;SHT31;52947;50.842;6.084;2022-10-13T11:01:49;15.33;78.00
66144;SHT31;52947;50.842;6.084;2022-10-13T11:04:31;15.33;78.08
66144;SHT31;52947;50.842;6.084;2022-10-13T11:07:01;15.37;77.94
66144;SHT31;52947;50.842;6.084;2022-10-13T11:10:02;15.46;78.14
66144;SHT31;52947;50.842;6.084;2022-10-13T11:13:06;15.41;78.00
66144;SHT31;52947;50.842;6.084;2022-10-13T11:15:42;15.44;77.95
66144;SHT31;52947;50.842;6.084;2022-10-13T11:22:12;15.53;78.02
66144;SHT31;52947;50.842;6.084;2022-10-13T11:24:52;15.64;77.99
66144;SHT31;52947;50.842;6.084;2022-10-13T11:27:41;15.89;77.28
66144;SHT31;52947;50.842;6.084;2022-10-13T11:30:39;16.30;76.46
66144;SHT31;52947;50.842;6.084;2022-10-13T11:33:51;16.57;75.50
66144;SHT31;52947;50.842;6.084;2022-10-13T11:36:46;16.52;74.92
66144;SHT31;52947;50.842;6.084;2022-10-13T11:39:49;16.56;74.36
66144;SHT31;52947;50.842;6.084;2022-10-13T11:42:42;16.73;74.73
66144;SHT31;52947;50.842;6.084;2022-10-13T11:45:21;16.83;74.20
66144;SHT31;52947;50.842;6.084;2022-10-13T11:48:08;16.84;73.97
66144;SHT31;52947;50.842;6.084;2022-10-13T11:50:43;16.85;74.50
66144;SHT31;52947;50.842;6.084;2022-10-13T11:53:16;16.88;74.13
66144;SHT31;52947;50.842;6.084;2022-10-13T11:55:47;16.83;74.40
66144;SHT31;52947;50.842;6.084;2022-10-13T11:58:18;16.76;74.04
66144;SHT31;52947;50.842;6.084;2022-10-13T12:00:54;16.67;74.95
66144;SHT31;52947;50.842;6.084;2022-10-13T12:03:26;16.71;74.78
66144;SHT31;52947;50.842;6.084;2022-10-13T12:05:56;16.71;74.53
66144;SHT31;52947;50.842;6.084;2022-10-13T12:08:25;16.71;73.85
66144;SHT31;52947;50.842;6.084;2022-10-13T12:10:55;16.69;74.26
66144;SHT31;52947;50.842;6.084;2022-10-13T12:13:28;16.67;74.46
66144;SHT31;52947;50.842;6.084;2022-10-13T12:15:58;16.70;74.65
66144;SHT31;52947;50.842;6.084;2022-10-13T12:18:30;16.67;74.31
66144;SHT31;52947;50.842;6.084;2022-10-13T12:21:01;16.71;73.62
66144;SHT31;52947;50.842;6.084;2022-10-13T12:23:31;16.70;74.24
66144;SHT31;52947;50.842;6.084;2022-10-13T12:26:01;16.70;74.44
66144;SHT31;52947;50.842;6.084;2022-10-13T12:28:41;16.76;74.41
66144;SHT31;52947;50.842;6.084;2022-10-13T12:31:17;16.81;73.74
66144;SHT31;52947;50.842;6.084;2022-10-13T12:33:51;16.79;74.86
66144;SHT31;52947;50.842;6.084;2022-10-13T12:36:24;16.71;73.34
66144;SHT31;52947;50.842;6.084;2022-10-13T12:38:58;16.64;75.13
66144;SHT31;52947;50.842;6.084;2022-10-13T12:41:30;16.61;74.67
66144;SHT31;52947;50.842;6.084;2022-10-13T12:43:59;16.50;74.90
66144;SHT31;52947;50.842;6.084;2022-10-13T12:46:37;16.53;74.63
66144;SHT31;52947;50.842;6.084;2022-10-13T12:49:05;16.50;74.61
66144;SHT31;52947;50.842;6.084;2022-10-13T12:51:35;16.47;74.61
66144;SHT31;52947;50.842;6.084;2022-10-13T12:54:07;16.47;75.23
66144;SHT31;52947;50.842;6.084;2022-10-13T12:56:41;16.55;75.45
66144;SHT31;52947;50.842;6.084;2022-10-13T12:59:14;16.59;74.93
66144;SHT31;52947;50.842;6.084;2022-10-13T13:01:52;16.56;75.33
66144;SHT31;52947;50.842;6.084;2022-10-13T13:04:29;16.52;74.66
66144;SHT31;52947;50.842;6.084;2022-10-13T13:06:59;16.49;75.02
66144;SHT31;52947;50.842;6.084;2022-10-13T13:09:29;16.42;75.53
66144;SHT31;52947;50.842;6.084;2022-10-13T13:12:24;16.32;74.81
66144;SHT31;52947;50.842;6.084;2022-10-13T13:14:54;16.40;73.71
66144;SHT31;52947;50.842;6.084;2022-10-13T13:17:25;16.38;73.56
66144;SHT31;52947;50.842;6.084;2022-10-13T13:20:23;16.40;73.28
66144;SHT31;52947;50.842;6.084;2022-10-13T13:22:52;16.50;72.80
66144;SHT31;52947;50.842;6.084;2022-10-13T13:25:20;16.60;73.44
66144;SHT31;52947;50.842;6.084;2022-10-13T13:27:49;16.64;73.28
66144;SHT31;52947;50.842;6.084;2022-10-13T13:30:19;16.69;72.29
66144;SHT31;52947;50.842;6.084;2022-10-13T13:32:48;16.73;72.25
66144;SHT31;52947;50.842;6.084;2022-10-13T13:35:16;16.64;72.81
66144;SHT31;52947;50.842;6.084;2022-10-13T13:37:46;16.64;72.84
66144;SHT31;52947;50.842;6.084;2022-10-13T13:40:18;16.56;73.10
66144;SHT31;52947;50.842;6.084;2022-10-13T13:42:46;16.49;73.59
66144;SHT31;52947;50.842;6.084;2022-10-13T13:45:16;16.50;72.88
66144;SHT31;52947;50.842;6.084;2022-10-13T13:47:44;16.56;73.28
66144;SHT31;52947;50.842;6.084;2022-10-13T13:50:15;16.47;72.77
66144;SHT31;52947;50.842;6.084;2022-10-13T13:52:54;16.38;72.81
66144;SHT31;52947;50.842;6.084;2022-10-13T13:55:22;16.26;73.38
66144;SHT31;52947;50.842;6.084;2022-10-13T13:57:50;16.22;73.34
66144;SHT31;52947;50.842;6.084;2022-10-13T14:00:20;16.12;74.52
66144;SHT31;52947;50.842;6.084;2022-10-13T14:02:53;16.10;73.81
66144;SHT31;52947;50.842;6.084;2022-10-13T14:05:21;16.06;73.67
66144;SHT31;52947;50.842;6.084;2022-10-13T14:07:52;16.08;73.86
66144;SHT31;52947;50.842;6.084;2022-10-13T14:10:20;16.13;73.90
66144;SHT31;52947;50.842;6.084;2022-10-13T14:12:47;16.22;73.85
66144;SHT31;52947;50.842;6.084;2022-10-13T14:15:16;16.19;73.66
66144;SHT31;52947;50.842;6.084;2022-10-13T14:17:45;16.20;73.46
66144;SHT31;52947;50.842;6.084;2022-10-13T14:20:12;16.16;73.42
66144;SHT31;52947;50.842;6.084;2022-10-13T14:22:42;16.12;73.55
66144;SHT31;52947;50.842;6.084;2022-10-13T14:25:12;16.09;74.06
66144;SHT31;52947;50.842;6.084;2022-10-13T14:27:40;16.05;74.01
66144;SHT31;52947;50.842;6.084;2022-10-13T14:30:12;16.02;73.85
66144;SHT31;52947;50.842;6.084;2022-10-13T14:32:40;15.92;74.36
66144;SHT31;52947;50.842;6.084;2022-10-13T14:35:09;15.97;73.72
66144;SHT31;52947;50.842;6.084;2022-10-13T14:37:37;15.89;73.63
66144;SHT31;52947;50.842;6.084;2022-10-13T14:40:06;15.88;73.74
66144;SHT31;52947;50.842;6.084;2022-10-13T14:42:34;15.85;74.05
66144;SHT31;52947;50.842;6.084;2022-10-13T14:45:03;15.78;74.50
66144;SHT31;52947;50.842;6.084;2022-10-13T14:47:32;15.82;74.69
66144;SHT31;52947;50.842;6.084;2022-10-13T14:49:59;15.75;74.28
66144;SHT31;52947;50.842;6.084;2022-10-13T14:52:29;15.75;74.11
66144;SHT31;52947;50.842;6.084;2022-10-13T14:54:56;15.78;73.89
66144;SHT31;52947;50.842;6.084;2022-10-13T14:57:24;15.75;73.77
66144;SHT31;52947;50.842;6.084;2022-10-13T14:59:52;15.74;73.75
66144;SHT31;52947;50.842;6.084;2022-10-13T15:02:27;15.69;73.78
66144;SHT31;52947;50.842;6.084;2022-10-13T15:04:55;15.74;74.15
66144;SHT31;52947;50.842;6.084;2022-10-13T15:07:23;15.71;74.22
66144;SHT31;52947;50.842;6.084;2022-10-13T15:09:52;15.64;74.40
66144;SHT31;52947;50.842;6.084;2022-10-13T15:12:32;15.58;74.71
66144;SHT31;52947;50.842;6.084;2022-10-13T15:15:01;15.61;74.58
66144;SHT31;52947;50.842;6.084;2022-10-13T15:17:29;15.64;74.77
66144;SHT31;52947;50.842;6.084;2022-10-13T15:19:57;15.61;74.80
66144;SHT31;52947;50.842;6.084;2022-10-13T15:22:25;15.58;74.92
66144;SHT31;52947;50.842;6.084;2022-10-13T15:24:54;15.51;75.54
66144;SHT31;52947;50.842;6.084;2022-10-13T15:27:22;15.44;76.28
66144;SHT31;52947;50.842;6.084;2022-10-13T15:29:50;15.20;77.17
66144;SHT31;52947;50.842;6.084;2022-10-13T15:32:18;15.03;79.89
66144;SHT31;52947;50.842;6.084;2022-10-13T15:34:53;14.85;81.91
66144;SHT31;52947;50.842;6.084;2022-10-13T15:37:21;14.72;83.04
66144;SHT31;52947;50.842;6.084;2022-10-13T15:39:49;14.56;84.26
66144;SHT31;52947;50.842;6.084;2022-10-13T15:42:24;14.54;84.77
66144;SHT31;52947;50.842;6.084;2022-10-13T15:44:52;14.36;85.59
66144;SHT31;52947;50.842;6.084;2022-10-13T15:47:37;14.32;85.87
66144;SHT31;52947;50.842;6.084;2022-10-13T15:50:05;14.25;86.49
66144;SHT31;52947;50.842;6.084;2022-10-13T15:52:36;14.11;86.88
66144;SHT31;52947;50.842;6.084;2022-10-13T15:55:04;14.07;87.29
66144;SHT31;52947;50.842;6.084;2022-10-13T15:57:34;14.00;87.68
66144;SHT31;52947;50.842;6.084;2022-10-13T16:00:02;13.98;87.62
66144;SHT31;52947;50.842;6.084;2022-10-13T16:02:37;13.91;87.98
66144;SHT31;52947;50.842;6.084;2022-10-13T16:05:07;13.83;88.37
66144;SHT31;52947;50.842;6.084;2022-10-13T16:07:37;13.86;88.62